sensor_id;sensor_type;location;lat;lon;timestamp;P1;durP1;ratioP1;P2;durP2;ratioP2
57321;SDS011;43159;51.006;18.224;2022-11-20T00:00:24;53.50;;;27.80;;
57321;SDS011;43159;51.006;18.224;2022-11-20T00:02:49;56.10;;;28.10;;
57321;SDS011;43159;51.006;18.224;2022-11-20T00:05:15;55.10;;;28.20;;
57321;SDS011;43159;51.006;18.224;2022-11-20T00:07:40;55.80;;;28.60;;
57321;SDS011;43159;51.006;18.224;2022-11-20T00:10:06;56.10;;;27.70;;
57321;SDS011;43159;51.006;18.224;2022-11-20T00:12:32;55.70;;;27.80;;
57321;SDS011;43159;51.006;18.224;2022-11-20T00:14:58;55.90;;;28.10;;
57321;SDS011;43159;51.006;18.224;2022-11-20T00:17:24;56.70;;;28.20;;
57321;SDS011;43159;51.006;18.224;2022-11-20T00:19:49;54.60;;;27.30;;
57321;SDS011;43159;51.006;18.224;2022-11-20T00:22:15;59.70;;;28.80;;
57321;SDS011;43159;51.006;18.224;2022-11-20T00:24:40;57.20;;;28.60;;
57321;SDS011;43159;51.006;18.224;2022-11-20T00:27:06;55.80;;;27.40;;
57321;SDS011;43159;51.006;18.224;2022-11-20T00:29:31;55.80;;;28.40;;
57321;SDS011;43159;51.006;18.224;2022-11-20T00:31:57;56.20;;;28.40;;
57321;SDS011;43159;51.006;18.224;2022-11-20T00:34:22;60.10;;;29.00;;
57321;SDS011;43159;51.006;18.224;2022-11-20T00:36:48;63.10;;;30.70;;
57321;SDS011;43159;51.006;18.224;2022-11-20T00:39:13;59.90;;;29.60;;
57321;SDS011;43159;51.006;18.224;2022-11-20T00:41:39;63.10;;;30.20;;
57321;SDS011;43159;51.006;18.224;2022-11-20T00:44:04;64.50;;;30.80;;
57321;SDS011;43159;51.006;18.224;2022-11-20T00:46:30;64.30;;;32.60;;
57321;SDS011;43159;51.006;18.224;2022-11-20T00:48:56;71.60;;;35.20;;
57321;SDS011;43159;51.006;18.224;2022-11-20T00:51:22;98.90;;;43.60;;
57321;SDS011;43159;51.006;18.224;2022-11-20T00:53:49;140.40;;;58.50;;
57321;SDS011;43159;51.006;18.224;2022-11-20T00:56:15;134.00;;;56.20;;
57321;SDS011;43159;51.006;18.224;2022-11-20T00:58:42;104.50;;;45.70;;
57321;SDS011;43159;51.006;18.224;2022-11-20T01:01:10;93.10;;;41.80;;
57321;SDS011;43159;51.006;18.224;2022-11-20T01:03:39;95.00;;;41.30;;
57321;SDS011;43159;51.006;18.224;2022-11-20T01:06:07;79.80;;;36.40;;
57321;SDS011;43159;51.006;18.224;2022-11-20T01:08:41;74.70;;;35.80;;
57321;SDS011;43159;51.006;18.224;2022-11-20T01:11:14;71.00;;;32.50;;
57321;SDS011;43159;51.006;18.224;2022-11-20T01:13:42;63.50;;;30.40;;
57321;SDS011;43159;51.006;18.224;2022-11-20T01:16:09;61.80;;;30.50;;
57321;SDS011;43159;51.006;18.224;2022-11-20T01:18:46;61.10;;;30.80;;
57321;SDS011;43159;51.006;18.224;2022-11-20T01:21:15;61.50;;;30.90;;
57321;SDS011;43159;51.006;18.224;2022-11-20T01:23:42;61.90;;;30.20;;
57321;SDS011;43159;51.006;18.224;2022-11-20T01:26:09;63.70;;;31.90;;
57321;SDS011;43159;51.006;18.224;2022-11-20T01:28:37;62.60;;;32.60;;
57321;SDS011;43159;51.006;18.224;2022-11-20T01:31:10;68.30;;;33.50;;
57321;SDS011;43159;51.006;18.224;2022-11-20T01:33:40;67.80;;;32.80;;
57321;SDS011;43159;51.006;18.224;2022-11-20T01:36:06;64.50;;;32.80;;
57321;SDS011;43159;51.006;18.224;2022-11-20T01:38:33;64.90;;;32.60;;
57321;SDS011;43159;51.006;18.224;2022-11-20T01:40:59;66.90;;;32.70;;
57321;SDS011;43159;51.006;18.224;2022-11-20T01:43:25;65.80;;;32.30;;
57321;SDS011;43159;51.006;18.224;2022-11-20T01:48:17;68.90;;;34.10;;
57321;SDS011;43159;51.006;18.224;2022-11-20T01:50:43;65.90;;;34.00;;
57321;SDS011;43159;51.006;18.224;2022-11-20T01:53:10;66.30;;;34.20;;
57321;SDS011;43159;51.006;18.224;2022-11-20T01:55:44;79.90;;;38.70;;
57321;SDS011;43159;51.006;18.224;2022-11-20T01:58:12;76.30;;;36.80;;
57321;SDS011;43159;51.006;18.224;2022-11-20T02:00:38;70.60;;;34.90;;
57321;SDS011;43159;51.006;18.224;2022-11-20T02:03:06;66.40;;;33.40;;
57321;SDS011;43159;51.006;18.224;2022-11-20T02:05:38;69.00;;;34.50;;
57321;SDS011;43159;51.006;18.224;2022-11-20T02:08:08;72.20;;;35.00;;
57321;SDS011;43159;51.006;18.224;2022-11-20T02:10:33;74.10;;;35.50;;
57321;SDS011;43159;51.006;18.224;2022-11-20T02:12:59;71.10;;;34.80;;
57321;SDS011;43159;51.006;18.224;2022-11-20T02:15:44;65.40;;;32.90;;
57321;SDS011;43159;51.006;18.224;2022-11-20T02:18:11;63.70;;;32.10;;
57321;SDS011;43159;51.006;18.224;2022-11-20T02:20:40;67.40;;;33.40;;
57321;SDS011;43159;51.006;18.224;2022-11-20T02:26:05;68.80;;;33.30;;
57321;SDS011;43159;51.006;18.224;2022-11-20T02:28:34;67.60;;;32.60;;
57321;SDS011;43159;51.006;18.224;2022-11-20T02:31:00;67.20;;;33.10;;
57321;SDS011;43159;51.006;18.224;2022-11-20T02:33:26;68.70;;;33.70;;
57321;SDS011;43159;51.006;18.224;2022-11-20T02:35:52;68.00;;;33.90;;
57321;SDS011;43159;51.006;18.224;2022-11-20T02:38:18;65.80;;;33.40;;
57321;SDS011;43159;51.006;18.224;2022-11-20T02:40:43;67.00;;;33.70;;
57321;SDS011;43159;51.006;18.224;2022-11-20T02:43:09;71.00;;;36.10;;
57321;SDS011;43159;51.006;18.224;2022-11-20T02:45:35;69.30;;;33.60;;
57321;SDS011;43159;51.006;18.224;2022-11-20T02:48:00;66.20;;;32.40;;
57321;SDS011;43159;51.006;18.224;2022-11-20T02:50:26;68.20;;;32.20;;
57321;SDS011;43159;51.006;18.224;2022-11-20T02:52:52;63.40;;;31.20;;
57321;SDS011;43159;51.006;18.224;2022-11-20T02:55:17;66.90;;;32.30;;
57321;SDS011;43159;51.006;18.224;2022-11-20T02:57:43;64.30;;;31.90;;
57321;SDS011;43159;51.006;18.224;2022-11-20T03:00:09;69.80;;;35.30;;
57321;SDS011;43159;51.006;18.224;2022-11-20T03:02:35;63.60;;;32.50;;
57321;SDS011;43159;51.006;18.224;2022-11-20T03:05:00;67.00;;;32.20;;
57321;SDS011;43159;51.006;18.224;2022-11-20T03:07:26;67.00;;;32.70;;
57321;SDS011;43159;51.006;18.224;2022-11-20T03:09:51;68.00;;;32.80;;
57321;SDS011;43159;51.006;18.224;2022-11-20T03:12:17;73.20;;;33.60;;
57321;SDS011;43159;51.006;18.224;2022-11-20T03:14:42;66.10;;;32.50;;
57321;SDS011;43159;51.006;18.224;2022-11-20T03:17:08;67.30;;;31.60;;
57321;SDS011;43159;51.006;18.224;2022-11-20T03:19:34;66.90;;;32.60;;
57321;SDS011;43159;51.006;18.224;2022-11-20T03:22:00;67.90;;;32.80;;
57321;SDS011;43159;51.006;18.224;2022-11-20T03:24:26;66.90;;;32.80;;
57321;SDS011;43159;51.006;18.224;2022-11-20T03:26:51;70.90;;;33.50;;
57321;SDS011;43159;51.006;18.224;2022-11-20T03:29:17;66.90;;;32.30;;
57321;SDS011;43159;51.006;18.224;2022-11-20T03:31:42;75.20;;;33.90;;
57321;SDS011;43159;51.006;18.224;2022-11-20T03:34:09;65.00;;;34.10;;
57321;SDS011;43159;51.006;18.224;2022-11-20T03:36:39;69.30;;;32.80;;
57321;SDS011;43159;51.006;18.224;2022-11-20T03:39:05;66.80;;;32.80;;
57321;SDS011;43159;51.006;18.224;2022-11-20T03:41:35;76.30;;;37.30;;
57321;SDS011;43159;51.006;18.224;2022-11-20T03:44:03;68.30;;;32.90;;
57321;SDS011;43159;51.006;18.224;2022-11-20T03:46:30;65.50;;;32.00;;
57321;SDS011;43159;51.006;18.224;2022-11-20T03:48:57;70.70;;;34.70;;
57321;SDS011;43159;51.006;18.224;2022-11-20T03:51:41;66.40;;;33.20;;
57321;SDS011;43159;51.006;18.224;2022-11-20T03:54:07;66.90;;;32.70;;
57321;SDS011;43159;51.006;18.224;2022-11-20T03:56:34;68.50;;;32.20;;
57321;SDS011;43159;51.006;18.224;2022-11-20T03:59:01;69.00;;;33.20;;
57321;SDS011;43159;51.006;18.224;2022-11-20T04:01:30;64.20;;;31.30;;
57321;SDS011;43159;51.006;18.224;2022-11-20T04:03:57;68.10;;;33.40;;
57321;SDS011;43159;51.006;18.224;2022-11-20T04:06:24;64.80;;;32.00;;
57321;SDS011;43159;51.006;18.224;2022-11-20T04:08:54;66.40;;;31.70;;
57321;SDS011;43159;51.006;18.224;2022-11-20T04:11:22;64.50;;;31.20;;
57321;SDS011;43159;51.006;18.224;2022-11-20T04:13:59;68.60;;;31.80;;
57321;SDS011;43159;51.006;18.224;2022-11-20T04:16:27;66.60;;;32.00;;
57321;SDS011;43159;51.006;18.224;2022-11-20T04:18:55;68.30;;;32.90;;
57321;SDS011;43159;51.006;18.224;2022-11-20T04:21:22;64.40;;;32.40;;
57321;SDS011;43159;51.006;18.224;2022-11-20T04:23:48;67.70;;;33.30;;
57321;SDS011;43159;51.006;18.224;2022-11-20T04:26:14;71.10;;;33.90;;
57321;SDS011;43159;51.006;18.224;2022-11-20T04:28:40;68.90;;;32.80;;
57321;SDS011;43159;51.006;18.224;2022-11-20T04:31:10;66.90;;;32.40;;
57321;SDS011;43159;51.006;18.224;2022-11-20T04:33:43;69.50;;;34.40;;
57321;SDS011;43159;51.006;18.224;2022-11-20T04:36:10;75.50;;;38.20;;
57321;SDS011;43159;51.006;18.224;2022-11-20T04:38:37;71.40;;;35.70;;
57321;SDS011;43159;51.006;18.224;2022-11-20T04:41:04;69.50;;;36.00;;
57321;SDS011;43159;51.006;18.224;2022-11-20T04:43:32;68.30;;;34.60;;
57321;SDS011;43159;51.006;18.224;2022-11-20T04:45:59;67.00;;;33.70;;
57321;SDS011;43159;51.006;18.224;2022-11-20T04:48:25;70.40;;;33.50;;
57321;SDS011;43159;51.006;18.224;2022-11-20T04:50:52;72.00;;;33.90;;
57321;SDS011;43159;51.006;18.224;2022-11-20T04:53:18;71.00;;;33.30;;
57321;SDS011;43159;51.006;18.224;2022-11-20T04:55:44;69.70;;;34.40;;
57321;SDS011;43159;51.006;18.224;2022-11-20T04:58:10;68.50;;;33.20;;
57321;SDS011;43159;51.006;18.224;2022-11-20T05:00:36;67.60;;;34.50;;
57321;SDS011;43159;51.006;18.224;2022-11-20T05:03:02;66.50;;;32.30;;
57321;SDS011;43159;51.006;18.224;2022-11-20T05:05:27;64.20;;;32.00;;
57321;SDS011;43159;51.006;18.224;2022-11-20T05:07:55;71.60;;;33.90;;
57321;SDS011;43159;51.006;18.224;2022-11-20T05:12:48;66.00;;;31.20;;
57321;SDS011;43159;51.006;18.224;2022-11-20T05:15:14;64.00;;;30.80;;
57321;SDS011;43159;51.006;18.224;2022-11-20T05:17:39;61.10;;;29.70;;
57321;SDS011;43159;51.006;18.224;2022-11-20T05:20:06;65.30;;;32.20;;
57321;SDS011;43159;51.006;18.224;2022-11-20T05:22:32;60.40;;;30.40;;
57321;SDS011;43159;51.006;18.224;2022-11-20T05:24:57;67.90;;;30.20;;
57321;SDS011;43159;51.006;18.224;2022-11-20T05:27:23;66.10;;;32.10;;
57321;SDS011;43159;51.006;18.224;2022-11-20T05:29:48;69.80;;;33.10;;
57321;SDS011;43159;51.006;18.224;2022-11-20T05:32:14;69.50;;;32.30;;
57321;SDS011;43159;51.006;18.224;2022-11-20T05:34:40;68.00;;;33.10;;
57321;SDS011;43159;51.006;18.224;2022-11-20T05:37:05;76.30;;;33.50;;
57321;SDS011;43159;51.006;18.224;2022-11-20T05:39:31;68.00;;;32.40;;
57321;SDS011;43159;51.006;18.224;2022-11-20T05:41:56;67.40;;;32.60;;
57321;SDS011;43159;51.006;18.224;2022-11-20T05:44:41;68.50;;;32.00;;
57321;SDS011;43159;51.006;18.224;2022-11-20T05:47:06;75.80;;;35.30;;
57321;SDS011;43159;51.006;18.224;2022-11-20T05:49:32;69.90;;;33.10;;
57321;SDS011;43159;51.006;18.224;2022-11-20T05:51:57;70.40;;;32.80;;
57321;SDS011;43159;51.006;18.224;2022-11-20T05:54:23;77.70;;;35.70;;
57321;SDS011;43159;51.006;18.224;2022-11-20T05:56:48;69.00;;;32.80;;
57321;SDS011;43159;51.006;18.224;2022-11-20T05:59:14;68.50;;;33.20;;
57321;SDS011;43159;51.006;18.224;2022-11-20T06:01:40;76.00;;;33.70;;
57321;SDS011;43159;51.006;18.224;2022-11-20T06:04:05;82.00;;;36.20;;
57321;SDS011;43159;51.006;18.224;2022-11-20T06:06:31;76.00;;;35.40;;
57321;SDS011;43159;51.006;18.224;2022-11-20T06:08:56;77.20;;;36.00;;
57321;SDS011;43159;51.006;18.224;2022-11-20T06:11:24;76.50;;;34.70;;
57321;SDS011;43159;51.006;18.224;2022-11-20T06:13:50;76.50;;;35.80;;
57321;SDS011;43159;51.006;18.224;2022-11-20T06:16:17;72.40;;;33.80;;
57321;SDS011;43159;51.006;18.224;2022-11-20T06:18:45;75.00;;;34.70;;
57321;SDS011;43159;51.006;18.224;2022-11-20T06:21:12;77.30;;;34.50;;
57321;SDS011;43159;51.006;18.224;2022-11-20T06:23:42;74.50;;;33.80;;
57321;SDS011;43159;51.006;18.224;2022-11-20T06:26:09;77.20;;;34.10;;
57321;SDS011;43159;51.006;18.224;2022-11-20T06:28:36;77.70;;;35.20;;
57321;SDS011;43159;51.006;18.224;2022-11-20T06:31:02;78.90;;;37.30;;
57321;SDS011;43159;51.006;18.224;2022-11-20T06:33:28;82.30;;;37.20;;
57321;SDS011;43159;51.006;18.224;2022-11-20T06:35:57;92.70;;;40.70;;
57321;SDS011;43159;51.006;18.224;2022-11-20T06:38:24;98.80;;;41.90;;
57321;SDS011;43159;51.006;18.224;2022-11-20T06:40:50;87.90;;;39.90;;
57321;SDS011;43159;51.006;18.224;2022-11-20T06:43:16;80.30;;;37.10;;
57321;SDS011;43159;51.006;18.224;2022-11-20T06:45:41;80.10;;;36.40;;
57321;SDS011;43159;51.006;18.224;2022-11-20T06:48:08;82.20;;;37.60;;
57321;SDS011;43159;51.006;18.224;2022-11-20T06:50:35;80.20;;;37.40;;
57321;SDS011;43159;51.006;18.224;2022-11-20T06:53:02;87.40;;;39.10;;
57321;SDS011;43159;51.006;18.224;2022-11-20T06:55:29;86.20;;;40.20;;
57321;SDS011;43159;51.006;18.224;2022-11-20T06:57:55;79.80;;;37.70;;
57321;SDS011;43159;51.006;18.224;2022-11-20T07:00:20;85.40;;;40.30;;
57321;SDS011;43159;51.006;18.224;2022-11-20T07:02:46;88.70;;;42.30;;
57321;SDS011;43159;51.006;18.224;2022-11-20T07:05:12;91.10;;;42.60;;
57321;SDS011;43159;51.006;18.224;2022-11-20T07:07:37;89.20;;;42.50;;
57321;SDS011;43159;51.006;18.224;2022-11-20T07:10:03;98.70;;;48.60;;
57321;SDS011;43159;51.006;18.224;2022-11-20T07:12:29;102.10;;;50.40;;
57321;SDS011;43159;51.006;18.224;2022-11-20T07:14:55;99.50;;;48.50;;
57321;SDS011;43159;51.006;18.224;2022-11-20T07:17:20;95.00;;;49.10;;
57321;SDS011;43159;51.006;18.224;2022-11-20T07:19:47;95.90;;;47.90;;
57321;SDS011;43159;51.006;18.224;2022-11-20T07:22:12;102.90;;;50.90;;
57321;SDS011;43159;51.006;18.224;2022-11-20T07:24:38;105.10;;;50.80;;
57321;SDS011;43159;51.006;18.224;2022-11-20T07:27:04;108.10;;;49.40;;
57321;SDS011;43159;51.006;18.224;2022-11-20T07:29:30;139.10;;;64.20;;
57321;SDS011;43159;51.006;18.224;2022-11-20T07:31:56;110.00;;;51.00;;
57321;SDS011;43159;51.006;18.224;2022-11-20T07:34:22;96.80;;;47.30;;
57321;SDS011;43159;51.006;18.224;2022-11-20T07:36:48;97.10;;;49.50;;
57321;SDS011;43159;51.006;18.224;2022-11-20T07:39:13;97.70;;;49.30;;
57321;SDS011;43159;51.006;18.224;2022-11-20T07:41:39;122.10;;;61.20;;
57321;SDS011;43159;51.006;18.224;2022-11-20T07:44:04;103.10;;;51.40;;
57321;SDS011;43159;51.006;18.224;2022-11-20T07:46:30;114.60;;;54.70;;
57321;SDS011;43159;51.006;18.224;2022-11-20T07:48:56;105.50;;;51.80;;
57321;SDS011;43159;51.006;18.224;2022-11-20T07:51:22;105.60;;;52.70;;
57321;SDS011;43159;51.006;18.224;2022-11-20T07:53:50;119.10;;;56.10;;
57321;SDS011;43159;51.006;18.224;2022-11-20T07:56:16;111.10;;;54.70;;
57321;SDS011;43159;51.006;18.224;2022-11-20T07:58:42;115.10;;;56.00;;
57321;SDS011;43159;51.006;18.224;2022-11-20T08:01:07;113.20;;;55.00;;
57321;SDS011;43159;51.006;18.224;2022-11-20T08:03:33;115.40;;;56.20;;
57321;SDS011;43159;51.006;18.224;2022-11-20T08:06:00;112.40;;;58.40;;
57321;SDS011;43159;51.006;18.224;2022-11-20T08:08:26;118.10;;;59.80;;
57321;SDS011;43159;51.006;18.224;2022-11-20T08:10:52;114.80;;;54.50;;
57321;SDS011;43159;51.006;18.224;2022-11-20T08:13:38;107.80;;;51.50;;
57321;SDS011;43159;51.006;18.224;2022-11-20T08:16:22;105.40;;;51.10;;
57321;SDS011;43159;51.006;18.224;2022-11-20T08:18:48;101.80;;;50.00;;
57321;SDS011;43159;51.006;18.224;2022-11-20T08:21:14;102.90;;;50.40;;
57321;SDS011;43159;51.006;18.224;2022-11-20T08:23:40;110.80;;;56.10;;
57321;SDS011;43159;51.006;18.224;2022-11-20T08:26:06;110.90;;;55.90;;
57321;SDS011;43159;51.006;18.224;2022-11-20T08:28:31;114.20;;;58.70;;
57321;SDS011;43159;51.006;18.224;2022-11-20T08:30:58;113.30;;;58.30;;
57321;SDS011;43159;51.006;18.224;2022-11-20T08:33:27;108.60;;;56.30;;
57321;SDS011;43159;51.006;18.224;2022-11-20T08:35:52;108.70;;;57.40;;
57321;SDS011;43159;51.006;18.224;2022-11-20T08:38:18;107.20;;;57.00;;
57321;SDS011;43159;51.006;18.224;2022-11-20T08:40:43;113.90;;;60.10;;
57321;SDS011;43159;51.006;18.224;2022-11-20T08:43:31;112.80;;;60.90;;
57321;SDS011;43159;51.006;18.224;2022-11-20T08:45:57;113.30;;;60.30;;
57321;SDS011;43159;51.006;18.224;2022-11-20T08:48:22;112.20;;;61.00;;
57321;SDS011;43159;51.006;18.224;2022-11-20T08:50:48;109.00;;;59.10;;
57321;SDS011;43159;51.006;18.224;2022-11-20T08:53:13;110.70;;;62.30;;
57321;SDS011;43159;51.006;18.224;2022-11-20T08:55:39;111.70;;;61.40;;
57321;SDS011;43159;51.006;18.224;2022-11-20T08:58:05;104.70;;;57.10;;
57321;SDS011;43159;51.006;18.224;2022-11-20T09:00:31;106.30;;;58.10;;
57321;SDS011;43159;51.006;18.224;2022-11-20T09:02:57;166.80;;;97.70;;
57321;SDS011;43159;51.006;18.224;2022-11-20T09:05:24;164.30;;;98.80;;
57321;SDS011;43159;51.006;18.224;2022-11-20T09:07:49;100.70;;;56.00;;
57321;SDS011;43159;51.006;18.224;2022-11-20T09:10:15;94.10;;;51.80;;
57321;SDS011;43159;51.006;18.224;2022-11-20T09:12:41;104.50;;;57.20;;
57321;SDS011;43159;51.006;18.224;2022-11-20T09:15:07;99.60;;;54.90;;
57321;SDS011;43159;51.006;18.224;2022-11-20T09:17:33;97.70;;;53.90;;
57321;SDS011;43159;51.006;18.224;2022-11-20T09:19:58;104.40;;;55.70;;
57321;SDS011;43159;51.006;18.224;2022-11-20T09:22:24;103.60;;;58.40;;
57321;SDS011;43159;51.006;18.224;2022-11-20T09:24:49;96.10;;;54.20;;
57321;SDS011;43159;51.006;18.224;2022-11-20T09:27:15;90.10;;;50.70;;
57321;SDS011;43159;51.006;18.224;2022-11-20T09:29:46;80.60;;;47.40;;
57321;SDS011;43159;51.006;18.224;2022-11-20T09:32:11;80.60;;;45.70;;
57321;SDS011;43159;51.006;18.224;2022-11-20T09:34:37;81.90;;;47.60;;
57321;SDS011;43159;51.006;18.224;2022-11-20T09:37:03;73.30;;;42.60;;
57321;SDS011;43159;51.006;18.224;2022-11-20T09:39:29;74.70;;;43.30;;
57321;SDS011;43159;51.006;18.224;2022-11-20T09:41:57;77.30;;;45.10;;
57321;SDS011;43159;51.006;18.224;2022-11-20T09:50:23;63.30;;;36.40;;
57321;SDS011;43159;51.006;18.224;2022-11-20T09:53:13;62.80;;;36.80;;
57321;SDS011;43159;51.006;18.224;2022-11-20T09:55:43;91.00;;;48.90;;
57321;SDS011;43159;51.006;18.224;2022-11-20T09:58:15;130.90;;;70.50;;
57321;SDS011;43159;51.006;18.224;2022-11-20T10:01:03;98.80;;;54.90;;
57321;SDS011;43159;51.006;18.224;2022-11-20T10:03:40;65.20;;;36.40;;
57321;SDS011;43159;51.006;18.224;2022-11-20T10:06:28;67.20;;;39.10;;
57321;SDS011;43159;51.006;18.224;2022-11-20T10:11:48;70.90;;;39.70;;
57321;SDS011;43159;51.006;18.224;2022-11-20T10:17:32;50.80;;;30.10;;
57321;SDS011;43159;51.006;18.224;2022-11-20T10:20:20;94.90;;;50.10;;
57321;SDS011;43159;51.006;18.224;2022-11-20T10:22:59;74.20;;;40.90;;
57321;SDS011;43159;51.006;18.224;2022-11-20T10:25:44;49.30;;;30.20;;
57321;SDS011;43159;51.006;18.224;2022-11-20T10:28:18;53.70;;;30.90;;
57321;SDS011;43159;51.006;18.224;2022-11-20T10:31:02;56.00;;;32.70;;
57321;SDS011;43159;51.006;18.224;2022-11-20T10:38:39;41.50;;;25.40;;
57321;SDS011;43159;51.006;18.224;2022-11-20T10:41:16;45.10;;;28.60;;
57321;SDS011;43159;51.006;18.224;2022-11-20T10:43:52;41.70;;;25.50;;
57321;SDS011;43159;51.006;18.224;2022-11-20T10:46:22;41.60;;;25.90;;
57321;SDS011;43159;51.006;18.224;2022-11-20T10:48:48;36.90;;;22.10;;
57321;SDS011;43159;51.006;18.224;2022-11-20T10:51:21;40.60;;;26.40;;
57321;SDS011;43159;51.006;18.224;2022-11-20T10:54:11;46.40;;;28.90;;
57321;SDS011;43159;51.006;18.224;2022-11-20T10:56:46;38.50;;;23.50;;
57321;SDS011;43159;51.006;18.224;2022-11-20T11:01:56;42.70;;;24.80;;
57321;SDS011;43159;51.006;18.224;2022-11-20T11:09:50;42.30;;;25.50;;
57321;SDS011;43159;51.006;18.224;2022-11-20T11:12:28;45.80;;;27.30;;
57321;SDS011;43159;51.006;18.224;2022-11-20T11:14:55;33.30;;;19.80;;
57321;SDS011;43159;51.006;18.224;2022-11-20T11:22:45;25.70;;;13.80;;
57321;SDS011;43159;51.006;18.224;2022-11-20T11:27:52;28.30;;;16.00;;
57321;SDS011;43159;51.006;18.224;2022-11-20T11:30:19;48.20;;;30.10;;
57321;SDS011;43159;51.006;18.224;2022-11-20T11:32:45;32.30;;;18.50;;
57321;SDS011;43159;51.006;18.224;2022-11-20T11:35:26;34.30;;;19.80;;
57321;SDS011;43159;51.006;18.224;2022-11-20T11:40:57;31.50;;;18.10;;
57321;SDS011;43159;51.006;18.224;2022-11-20T11:43:25;33.70;;;19.10;;
57321;SDS011;43159;51.006;18.224;2022-11-20T11:46:21;36.30;;;20.60;;
57321;SDS011;43159;51.006;18.224;2022-11-20T11:48:57;34.50;;;20.50;;
57321;SDS011;43159;51.006;18.224;2022-11-20T11:51:28;35.60;;;21.40;;
57321;SDS011;43159;51.006;18.224;2022-11-20T11:53:58;40.10;;;22.40;;
57321;SDS011;43159;51.006;18.224;2022-11-20T11:56:26;38.20;;;22.40;;
57321;SDS011;43159;51.006;18.224;2022-11-20T11:58:53;39.90;;;24.10;;
57321;SDS011;43159;51.006;18.224;2022-11-20T12:07:00;40.30;;;24.00;;
57321;SDS011;43159;51.006;18.224;2022-11-20T12:09:37;41.00;;;25.00;;
57321;SDS011;43159;51.006;18.224;2022-11-20T12:12:10;43.80;;;24.10;;
57321;SDS011;43159;51.006;18.224;2022-11-20T12:14:39;45.10;;;25.90;;
57321;SDS011;43159;51.006;18.224;2022-11-20T12:17:08;59.60;;;34.70;;
57321;SDS011;43159;51.006;18.224;2022-11-20T12:19:36;41.50;;;24.30;;
57321;SDS011;43159;51.006;18.224;2022-11-20T12:22:04;57.60;;;31.50;;
57321;SDS011;43159;51.006;18.224;2022-11-20T12:24:44;67.40;;;37.20;;
57321;SDS011;43159;51.006;18.224;2022-11-20T12:43:29;56.50;;;33.30;;
57321;SDS011;43159;51.006;18.224;2022-11-20T12:48:58;57.10;;;32.10;;
57321;SDS011;43159;51.006;18.224;2022-11-20T13:02:24;39.70;;;22.80;;
57321;SDS011;43159;51.006;18.224;2022-11-20T13:07:36;35.00;;;20.30;;
57321;SDS011;43159;51.006;18.224;2022-11-20T13:10:03;36.10;;;19.70;;
57321;SDS011;43159;51.006;18.224;2022-11-20T13:12:31;36.50;;;21.00;;
57321;SDS011;43159;51.006;18.224;2022-11-20T13:18:08;36.60;;;21.20;;
57321;SDS011;43159;51.006;18.224;2022-11-20T13:20:35;39.10;;;23.00;;
57321;SDS011;43159;51.006;18.224;2022-11-20T13:23:01;38.50;;;24.00;;
57321;SDS011;43159;51.006;18.224;2022-11-20T13:28:00;37.20;;;22.30;;
57321;SDS011;43159;51.006;18.224;2022-11-20T13:35:30;42.40;;;23.80;;
57321;SDS011;43159;51.006;18.224;2022-11-20T13:38:05;40.50;;;22.50;;
57321;SDS011;43159;51.006;18.224;2022-11-20T13:40:56;45.70;;;25.70;;
57321;SDS011;43159;51.006;18.224;2022-11-20T13:43:40;49.00;;;25.60;;
57321;SDS011;43159;51.006;18.224;2022-11-20T13:46:08;48.00;;;27.20;;
57321;SDS011;43159;51.006;18.224;2022-11-20T13:48:44;48.30;;;27.40;;
57321;SDS011;43159;51.006;18.224;2022-11-20T13:59:33;60.40;;;33.70;;
57321;SDS011;43159;51.006;18.224;2022-11-20T14:02:20;61.60;;;34.70;;
57321;SDS011;43159;51.006;18.224;2022-11-20T14:04:54;64.00;;;34.40;;
57321;SDS011;43159;51.006;18.224;2022-11-20T14:07:23;62.30;;;33.70;;
57321;SDS011;43159;51.006;18.224;2022-11-20T14:09:51;61.50;;;34.40;;
57321;SDS011;43159;51.006;18.224;2022-11-20T14:12:22;61.20;;;34.20;;
57321;SDS011;43159;51.006;18.224;2022-11-20T14:14:53;63.00;;;34.30;;
57321;SDS011;43159;51.006;18.224;2022-11-20T14:19:54;64.80;;;34.50;;
57321;SDS011;43159;51.006;18.224;2022-11-20T14:22:23;66.10;;;34.80;;
57321;SDS011;43159;51.006;18.224;2022-11-20T14:27:38;66.60;;;34.70;;
57321;SDS011;43159;51.006;18.224;2022-11-20T14:30:06;70.90;;;36.40;;
57321;SDS011;43159;51.006;18.224;2022-11-20T14:32:43;71.10;;;35.80;;
57321;SDS011;43159;51.006;18.224;2022-11-20T14:35:13;69.20;;;35.20;;
57321;SDS011;43159;51.006;18.224;2022-11-20T14:37:44;74.50;;;37.60;;
57321;SDS011;43159;51.006;18.224;2022-11-20T14:40:23;76.10;;;37.90;;
57321;SDS011;43159;51.006;18.224;2022-11-20T14:42:51;81.60;;;39.50;;
57321;SDS011;43159;51.006;18.224;2022-11-20T14:45:17;82.60;;;39.00;;
57321;SDS011;43159;51.006;18.224;2022-11-20T14:47:43;80.50;;;38.00;;
57321;SDS011;43159;51.006;18.224;2022-11-20T14:50:20;79.40;;;36.20;;
57321;SDS011;43159;51.006;18.224;2022-11-20T14:52:53;78.20;;;36.50;;
57321;SDS011;43159;51.006;18.224;2022-11-20T14:55:33;77.70;;;36.20;;
57321;SDS011;43159;51.006;18.224;2022-11-20T14:58:05;71.50;;;34.40;;
57321;SDS011;43159;51.006;18.224;2022-11-20T15:00:32;71.10;;;35.80;;
57321;SDS011;43159;51.006;18.224;2022-11-20T15:02:59;76.90;;;37.70;;
57321;SDS011;43159;51.006;18.224;2022-11-20T15:05:25;77.40;;;38.70;;
57321;SDS011;43159;51.006;18.224;2022-11-20T15:08:10;78.00;;;39.00;;
57321;SDS011;43159;51.006;18.224;2022-11-20T15:10:36;76.40;;;38.20;;
57321;SDS011;43159;51.006;18.224;2022-11-20T15:13:10;73.80;;;36.80;;
57321;SDS011;43159;51.006;18.224;2022-11-20T15:15:45;74.70;;;35.30;;
57321;SDS011;43159;51.006;18.224;2022-11-20T15:18:23;71.40;;;35.10;;
57321;SDS011;43159;51.006;18.224;2022-11-20T15:20:52;66.70;;;33.30;;
57321;SDS011;43159;51.006;18.224;2022-11-20T15:23:20;68.80;;;33.10;;
57321;SDS011;43159;51.006;18.224;2022-11-20T15:25:46;74.40;;;36.20;;
57321;SDS011;43159;51.006;18.224;2022-11-20T15:30:50;79.10;;;40.10;;
57321;SDS011;43159;51.006;18.224;2022-11-20T15:33:16;86.80;;;41.80;;
57321;SDS011;43159;51.006;18.224;2022-11-20T15:35:42;77.30;;;38.00;;
57321;SDS011;43159;51.006;18.224;2022-11-20T15:38:08;83.70;;;40.70;;
57321;SDS011;43159;51.006;18.224;2022-11-20T15:40:33;77.80;;;38.30;;
57321;SDS011;43159;51.006;18.224;2022-11-20T15:42:59;76.80;;;38.00;;
57321;SDS011;43159;51.006;18.224;2022-11-20T15:48:04;74.50;;;36.50;;
57321;SDS011;43159;51.006;18.224;2022-11-20T15:50:36;67.90;;;35.70;;
57321;SDS011;43159;51.006;18.224;2022-11-20T15:53:03;73.30;;;35.50;;
57321;SDS011;43159;51.006;18.224;2022-11-20T15:55:29;76.00;;;37.20;;
57321;SDS011;43159;51.006;18.224;2022-11-20T15:57:55;89.10;;;39.00;;
57321;SDS011;43159;51.006;18.224;2022-11-20T16:00:21;85.50;;;39.20;;
57321;SDS011;43159;51.006;18.224;2022-11-20T16:02:47;91.30;;;39.80;;
57321;SDS011;43159;51.006;18.224;2022-11-20T16:05:12;82.00;;;37.50;;